createdAt,value
2022-07-27T00:01:37.828Z,15.56
2022-07-27T00:11:59.357Z,15.70
2022-07-27T00:22:20.873Z,15.60
2022-07-27T00:32:42.583Z,15.66
2022-07-27T00:43:04.214Z,15.34
2022-07-27T00:53:25.773Z,15.37
2022-07-27T01:03:47.941Z,15.21
2022-07-27T01:14:12.222Z,15.15
2022-07-27T01:24:34.288Z,15.18
2022-07-27T01:34:55.834Z,14.97
2022-07-27T01:45:17.270Z,14.85
2022-07-27T01:55:39.364Z,14.95
2022-07-27T02:06:01.261Z,15.00
2022-07-27T02:16:22.850Z,14.99
2022-07-27T02:26:46.285Z,14.97
2022-07-27T02:37:11.345Z,14.79
2022-07-27T02:47:32.891Z,14.92
2022-07-27T02:57:54.327Z,14.99
2022-07-27T03:08:16.133Z,14.73
2022-07-27T03:18:38.339Z,14.53
2022-07-27T03:29:00.207Z,14.33
2022-07-27T03:39:21.709Z,14.40
2022-07-27T03:49:43.281Z,14.24
2022-07-27T04:00:04.896Z,14.00
2022-07-27T04:10:31.556Z,13.85
2022-07-27T04:20:53.433Z,14.21
2022-07-27T04:31:15.079Z,14.07
2022-07-27T04:41:36.502Z,13.79
2022-07-27T04:51:58.088Z,14.11
2022-07-27T05:02:19.609Z,14.06
2022-07-27T05:12:41.151Z,14.26
2022-07-27T05:23:02.762Z,14.45
2022-07-27T05:33:24.179Z,14.64
2022-07-27T05:43:45.665Z,14.97
2022-07-27T05:54:08.080Z,15.19
2022-07-27T06:04:29.681Z,15.41
2022-07-27T06:14:51.308Z,15.70
2022-07-27T06:25:13.423Z,15.99
2022-07-27T06:35:38.978Z,15.84
2022-07-27T06:46:00.892Z,15.97
2022-07-27T06:56:22.350Z,16.21
2022-07-27T07:06:44.613Z,16.17
2022-07-27T07:17:06.220Z,16.24
2022-07-27T07:27:28.370Z,16.64
2022-07-27T07:37:50.531Z,17.10
2022-07-27T07:48:12.444Z,17.37
2022-07-27T07:58:33.999Z,17.70
2022-07-27T08:08:55.538Z,17.47
2022-07-27T08:19:17.069Z,16.91
2022-07-27T08:29:39.453Z,16.84
2022-07-27T08:50:43.102Z,17.55
2022-07-27T09:01:04.773Z,18.20
2022-07-27T09:11:26.391Z,18.51
2022-07-27T09:21:47.780Z,18.38
2022-07-27T09:32:18.314Z,18.95
2022-07-27T09:43:14.658Z,18.66
2022-07-27T09:53:41.411Z,18.70
2022-07-27T10:04:05.238Z,18.39
2022-07-27T10:14:26.787Z,18.67
2022-07-27T10:24:58.109Z,19.51
2022-07-27T10:35:32.750Z,19.12
2022-07-27T10:46:01.918Z,18.79
2022-07-27T10:56:44.150Z,19.60
2022-07-27T11:07:23.931Z,19.34
2022-07-27T11:18:00.179Z,19.74
2022-07-27T11:28:35.183Z,20.71
2022-07-27T11:38:56.727Z,20.94
2022-07-27T11:49:28.727Z,21.32
2022-07-27T11:59:51.090Z,21.82
2022-07-27T12:10:13.426Z,21.29
2022-07-27T12:20:37.325Z,21.65
2022-07-27T12:30:58.970Z,20.92
2022-07-27T12:41:27.826Z,21.02
2022-07-27T12:51:49.265Z,21.29
2022-07-27T13:02:10.727Z,20.86
2022-07-27T13:12:32.229Z,20.58
2022-07-27T13:22:54.056Z,20.39
2022-07-27T13:33:15.605Z,20.17
2022-07-27T13:43:37.194Z,20.50
2022-07-27T13:53:58.592Z,20.07
2022-07-27T14:04:20.149Z,20.12
2022-07-27T14:14:41.679Z,20.03
2022-07-27T14:25:03.306Z,20.10
2022-07-27T14:35:24.858Z,20.30
2022-07-27T14:45:47.489Z,20.14
2022-07-27T14:56:08.938Z,20.26
2022-07-27T15:06:33.921Z,20.22
2022-07-27T15:16:58.389Z,20.70
2022-07-27T15:27:20.136Z,20.26
2022-07-27T15:37:41.611Z,20.05
2022-07-27T15:48:17.139Z,19.90
2022-07-27T15:58:38.564Z,20.22
2022-07-27T16:09:00.122Z,20.06
2022-07-27T16:19:21.532Z,20.56
2022-07-27T16:29:43.240Z,20.02
2022-07-27T16:40:05.133Z,19.65
2022-07-27T16:50:26.672Z,19.56
2022-07-27T17:00:48.133Z,19.79
2022-07-27T17:11:11.152Z,20.01
2022-07-27T17:21:32.666Z,19.81
2022-07-27T17:31:54.181Z,19.43
2022-07-27T17:42:15.755Z,19.03
2022-07-27T17:52:38.468Z,19.01
2022-07-27T18:03:00.703Z,18.70
2022-07-27T18:13:22.211Z,18.51
2022-07-27T18:23:43.749Z,18.12
2022-07-27T18:34:09.268Z,18.08
2022-07-27T18:44:38.414Z,17.68
2022-07-27T18:55:00.905Z,17.77
2022-07-27T19:05:40.696Z,17.69
2022-07-27T19:16:03.472Z,17.55
2022-07-27T19:26:25.189Z,17.34
2022-07-27T19:36:46.743Z,17.07
2022-07-27T19:47:08.514Z,17.30
2022-07-27T19:57:30.101Z,17.19
2022-07-27T20:07:51.683Z,16.93
2022-07-27T20:18:13.301Z,16.68
2022-07-27T20:28:34.965Z,16.57
2022-07-27T20:38:58.997Z,16.49
2022-07-27T20:49:20.728Z,16.27
2022-07-27T20:59:42.267Z,16.06
2022-07-27T21:10:05.332Z,16.15
2022-07-27T21:20:27.554Z,16.11
2022-07-27T21:30:49.097Z,15.54
2022-07-27T21:41:10.629Z,15.66
2022-07-27T21:51:32.229Z,15.49
2022-07-27T22:01:53.782Z,15.68
2022-07-27T22:12:15.334Z,15.50
2022-07-27T22:22:37.004Z,15.27
2022-07-27T22:32:59.834Z,15.11
2022-07-27T22:43:21.392Z,15.09
2022-07-27T22:53:44.585Z,14.85
2022-07-27T23:04:06.248Z,14.48
2022-07-27T23:14:29.288Z,14.55
2022-07-27T23:24:51.167Z,14.44
2022-07-27T23:35:12.896Z,14.25
2022-07-27T23:45:35.040Z,14.02
2022-07-27T23:55:56.730Z,14.05
